Time;durP1;ratioP1;P1;durP2;ratioP2;P2;SDS_P1;SDS_P2;PMS_P1;PMS_P2;Temp;Humidity;BMP_temperature;BMP_pressure;BME280_temperature;BME280_humidity;BME280_pressure;Samples;Min_cycle;Max_cycle;Signal;HPM_P1;HPM_P2
2023/08/07 00:00:13;;;;;;;12.88;12.05;;;15.50;84.20;;;;;;4997595;28;20193;-92
2023/08/07 00:02:39;;;;;;;13.10;12.10;;;15.50;84.50;;;;;;4997063;28;20563;-92
2023/08/07 00:05:06;;;;;;;13.15;11.48;;;15.50;84.70;;;;;;4996868;28;20224;-92
2023/08/07 00:07:31;;;;;;;11.70;10.82;;;15.40;85.10;;;;;;4996186;28;20283;-91
2023/08/07 00:09:57;;;;;;;12.23;11.13;;;15.30;85.40;;;;;;4996017;28;20268;-92
2023/08/07 00:12:22;;;;;;;12.23;11.32;;;15.30;85.70;;;;;;4996121;28;20188;-92
2023/08/07 00:14:50;;;;;;;12.20;11.13;;;15.30;86.00;;;;;;4997598;28;20197;-93
2023/08/07 00:17:16;;;;;;;11.23;10.23;;;15.30;86.30;;;;;;4999077;28;20181;-93
2023/08/07 00:19:41;;;;;;;11.43;10.35;;;15.30;86.70;;;;;;5000466;28;20652;-93
2023/08/07 00:22:07;;;;;;;10.80;10.00;;;15.20;87.00;;;;;;5001070;28;20666;-93
2023/08/07 00:24:32;;;;;;;11.20;10.25;;;15.20;87.30;;;;;;5001608;28;20190;-92
2023/08/07 00:26:58;;;;;;;11.18;10.00;;;15.30;87.60;;;;;;5001316;28;20177;-93
2023/08/07 00:29:23;;;;;;;11.43;10.38;;;15.30;87.70;;;;;;5003362;28;20184;-93
2023/08/07 00:31:49;;;;;;;11.20;10.40;;;15.30;87.90;;;;;;5006388;28;20810;-93
2023/08/07 00:34:15;;;;;;;10.90;10.13;;;15.30;88.00;;;;;;5002145;28;20255;-90
2023/08/07 00:36:40;;;;;;;11.00;9.90;;;15.30;88.10;;;;;;5001845;28;20174;-93
2023/08/07 00:39:07;;;;;;;10.63;9.73;;;15.30;88.30;;;;;;5004566;28;20169;-93
2023/08/07 00:41:33;;;;;;;11.13;9.57;;;15.30;88.30;;;;;;5005974;28;20181;-93
2023/08/07 00:43:58;;;;;;;10.07;9.35;;;15.40;88.40;;;;;;5002444;28;20262;-92
2023/08/07 00:46:24;;;;;;;10.52;9.63;;;15.40;88.40;;;;;;5002967;28;20180;-94
2023/08/07 00:48:52;;;;;;;11.68;9.15;;;15.40;88.50;;;;;;5022015;28;20185;-90
2023/08/07 00:51:18;;;;;;;10.13;9.25;;;15.40;88.70;;;;;;4999253;28;20208;-90
2023/08/07 00:53:44;;;;;;;9.52;8.80;;;15.40;88.80;;;;;;5016048;28;20664;-91
2023/08/07 00:56:10;;;;;;;9.98;9.32;;;15.40;88.80;;;;;;5016172;28;20268;-91
2023/08/07 00:58:36;;;;;;;10.85;9.73;;;15.30;88.90;;;;;;5016159;28;20173;-91
2023/08/07 01:01:01;;;;;;;10.20;9.30;;;15.40;88.90;;;;;;5016199;28;20202;-91
2023/08/07 01:03:27;;;;;;;10.68;9.70;;;15.30;88.90;;;;;;4998389;28;20198;-90
2023/08/07 01:05:53;;;;;;;11.18;9.75;;;15.40;89.00;;;;;;5015939;28;20185;-92
2023/08/07 01:08:20;;;;;;;12.73;10.10;;;15.30;89.00;;;;;;4999328;28;20532;-90
2023/08/07 01:10:58;;;;;;;11.43;9.23;;;15.30;88.90;;;;;;4998310;28;20190;-90
2023/08/07 01:13:30;;;;;;;12.88;9.63;;;15.30;89.00;;;;;;5015804;28;20547;-89
2023/08/07 01:16:07;;;;;;;11.48;9.20;;;15.30;89.00;;;;;;4998821;28;20585;-90
2023/08/07 01:18:34;;;;;;;11.95;9.80;;;15.20;89.10;;;;;;4999364;28;20161;-90
2023/08/07 01:21:00;;;;;;;10.80;9.80;;;15.20;89.20;;;;;;4998144;28;20244;-91
2023/08/07 01:23:25;;;;;;;10.50;9.70;;;15.20;89.20;;;;;;5015514;28;20198;-90
2023/08/07 01:25:51;;;;;;;11.27;10.30;;;15.20;89.20;;;;;;5015516;28;20571;-90
2023/08/07 01:28:30;;;;;;;18.13;10.05;;;15.20;89.30;;;;;;5014607;28;20185;-91
2023/08/07 01:31:07;;;;;;;15.03;10.00;;;15.10;89.40;;;;;;5015686;28;20594;-90
2023/08/07 01:33:39;;;;;;;11.15;10.20;;;15.10;89.30;;;;;;5015944;28;20458;-91
2023/08/07 01:36:07;;;;;;;13.13;10.57;;;15.00;89.30;;;;;;4997918;28;20173;-90
2023/08/07 01:38:33;;;;;;;10.98;9.90;;;15.10;89.20;;;;;;4997944;28;20182;-90
2023/08/07 01:41:00;;;;;;;22.75;12.98;;;15.00;89.20;;;;;;5015252;28;20181;-90
2023/08/07 01:43:26;;;;;;;10.00;9.18;;;15.10;89.20;;;;;;4997726;28;20572;-91
2023/08/07 01:45:52;;;;;;;11.65;10.00;;;15.00;89.20;;;;;;5015185;28;20208;-90
2023/08/07 01:48:18;;;;;;;10.88;9.80;;;15.00;89.00;;;;;;4997623;28;20551;-90
2023/08/07 01:50:43;;;;;;;10.38;9.57;;;15.00;88.60;;;;;;5015406;28;20252;-90
2023/08/07 01:53:09;;;;;;;11.73;10.68;;;15.00;88.30;;;;;;4998015;28;20264;-91
2023/08/07 01:55:34;;;;;;;11.63;9.82;;;15.00;88.20;;;;;;5014923;28;20197;-90
2023/08/07 01:58:00;;;;;;;11.13;10.23;;;15.00;87.90;;;;;;4997765;28;20177;-91
2023/08/07 02:00:26;;;;;;;11.10;10.27;;;15.00;87.60;;;;;;5015181;28;20140;-90
2023/08/07 02:02:51;;;;;;;21.85;20.13;;;15.00;87.50;;;;;;4997312;28;20204;-91
2023/08/07 02:05:17;;;;;;;22.42;20.80;;;15.00;87.50;;;;;;4997325;28;20190;-91
2023/08/07 02:07:43;;;;;;;25.20;23.58;;;15.00;87.50;;;;;;4998301;28;20180;-90
2023/08/07 02:10:08;;;;;;;11.15;9.90;;;14.90;87.70;;;;;;4997307;28;20189;-90
2023/08/07 02:12:34;;;;;;;10.77;9.93;;;14.90;87.90;;;;;;4996985;28;20679;-90
2023/08/07 02:15:00;;;;;;;19.73;18.05;;;15.00;87.90;;;;;;5014524;28;20233;-91
2023/08/07 02:17:27;;;;;;;19.33;18.13;;;15.00;88.10;;;;;;4996982;28;20177;-90
2023/08/07 02:19:53;;;;;;;21.48;19.90;;;15.00;88.20;;;;;;4997122;28;20182;-90
2023/08/07 02:22:19;;;;;;;10.95;9.85;;;15.00;88.20;;;;;;4996927;28;20697;-91
2023/08/07 02:24:44;;;;;;;10.32;9.52;;;15.10;88.10;;;;;;4997531;28;20251;-90
2023/08/07 02:27:10;;;;;;;20.45;19.00;;;15.10;88.10;;;;;;4997060;28;20649;-91
2023/08/07 02:29:35;;;;;;;21.40;19.80;;;15.00;88.00;;;;;;4996937;28;20188;-90
2023/08/07 02:32:04;;;;;;;23.67;22.02;;;15.10;87.90;;;;;;5014407;28;20649;-91
2023/08/07 02:34:30;;;;;;;10.85;10.00;;;15.00;88.00;;;;;;4996627;28;20304;-90
2023/08/07 02:36:56;;;;;;;10.68;9.73;;;15.00;88.00;;;;;;5014489;28;20181;-91
2023/08/07 02:39:22;;;;;;;11.55;10.40;;;15.10;87.90;;;;;;4997510;28;20177;-90
2023/08/07 02:41:48;;;;;;;10.68;9.95;;;15.10;87.80;;;;;;4997092;28;20208;-90
2023/08/07 02:44:13;;;;;;;11.25;9.68;;;15.00;87.90;;;;;;4996899;28;20231;-90
2023/08/07 02:46:39;;;;;;;10.40;9.65;;;15.10;88.00;;;;;;5014219;28;20174;-90
2023/08/07 02:49:04;;;;;;;11.85;10.80;;;15.00;88.00;;;;;;4996529;28;20159;-91
2023/08/07 02:51:30;;;;;;;11.23;10.27;;;15.00;88.30;;;;;;4996575;28;20594;-91
2023/08/07 02:53:56;;;;;;;11.38;10.30;;;15.00;88.40;;;;;;4996434;28;20200;-91
2023/08/07 02:56:22;;;;;;;11.43;10.52;;;15.00;88.50;;;;;;4996403;28;20141;-91
2023/08/07 02:58:47;;;;;;;13.00;10.10;;;15.00;88.60;;;;;;5014250;28;20229;-91
2023/08/07 03:01:13;;;;;;;11.25;10.00;;;15.00;88.60;;;;;;4996556;28;20182;-91
2023/08/07 03:03:39;;;;;;;12.88;9.57;;;15.00;88.80;;;;;;4996208;28;20221;-90
2023/08/07 03:06:04;;;;;;;10.90;9.38;;;15.00;89.00;;;;;;4996479;28;20177;-91
2023/08/07 03:08:30;;;;;;;10.30;9.38;;;15.00;89.10;;;;;;5013730;28;20180;-91
2023/08/07 03:10:57;;;;;;;10.13;9.15;;;14.90;89.20;;;;;;4996371;28;20268;-90
2023/08/07 03:13:24;;;;;;;10.32;9.43;;;15.00;89.30;;;;;;4996133;28;20182;-90
2023/08/07 03:15:50;;;;;;;10.32;9.45;;;15.00;89.40;;;;;;4996131;28;20179;-90
2023/08/07 03:18:18;;;;;;;14.50;9.90;;;15.00;89.50;;;;;;5013874;28;20172;-90
2023/08/07 03:20:44;;;;;;;10.82;9.82;;;15.00;89.70;;;;;;4996507;28;20269;-90
2023/08/07 03:23:10;;;;;;;11.85;9.35;;;15.10;89.90;;;;;;4996071;28;20764;-91
2023/08/07 03:25:36;;;;;;;9.65;8.77;;;15.10;89.90;;;;;;4996202;28;20208;-91
2023/08/07 03:28:02;;;;;;;11.98;9.45;;;15.10;89.90;;;;;;4995892;28;20185;-91
2023/08/07 03:30:28;;;;;;;16.17;9.75;;;15.10;90.10;;;;;;4995952;28;20186;-90
2023/08/07 03:32:53;;;;;;;10.40;9.45;;;15.10;90.20;;;;;;4996166;28;20201;-91
2023/08/07 03:35:19;;;;;;;10.68;9.68;;;15.10;90.40;;;;;;5013416;28;20200;-90
2023/08/07 03:37:44;;;;;;;10.43;9.63;;;15.10;90.50;;;;;;5013482;28;20173;-90
2023/08/07 03:40:10;;;;;;;11.02;10.10;;;15.00;90.60;;;;;;4996082;28;20199;-91
2023/08/07 03:42:36;;;;;;;11.48;9.65;;;15.10;90.60;;;;;;4995818;28;20197;-91
2023/08/07 03:45:01;;;;;;;10.80;9.88;;;15.10;90.70;;;;;;4995941;28;20200;-90
2023/08/07 03:47:27;;;;;;;15.27;9.77;;;15.00;90.80;;;;;;5013597;28;20260;-91
2023/08/07 03:49:52;;;;;;;12.02;10.20;;;15.10;90.80;;;;;;5013344;28;20184;-90
2023/08/07 03:52:18;;;;;;;11.27;10.25;;;15.10;90.80;;;;;;5015490;28;20252;-91
2023/08/07 03:54:43;;;;;;;11.63;10.18;;;15.00;90.90;;;;;;4999686;28;20609;-91
2023/08/07 03:57:10;;;;;;;11.35;10.18;;;15.00;90.90;;;;;;5017870;28;20693;-91
2023/08/07 03:59:36;;;;;;;12.02;10.85;;;15.00;90.90;;;;;;5000560;28;20181;-91
2023/08/07 04:02:02;;;;;;;11.43;10.38;;;15.00;91.00;;;;;;4999476;28;20178;-90
2023/08/07 04:04:28;;;;;;;20.00;10.38;;;15.00;91.00;;;;;;5017040;28;20196;-91
2023/08/07 04:06:53;;;;;;;12.35;10.43;;;15.00;91.30;;;;;;4999605;28;20646;-91
2023/08/07 04:09:19;;;;;;;11.57;10.30;;;15.00;91.30;;;;;;5017348;28;20181;-91
2023/08/07 04:11:44;;;;;;;13.80;10.98;;;15.00;91.40;;;;;;4999470;28;20185;-91
2023/08/07 04:14:10;;;;;;;13.48;10.35;;;15.00;91.50;;;;;;4999450;28;20287;-90
2023/08/07 04:16:37;;;;;;;16.00;10.10;;;15.10;91.70;;;;;;5016943;28;20171;-90
2023/08/07 04:19:02;;;;;;;12.45;10.60;;;15.10;91.70;;;;;;4999462;28;20178;-91
2023/08/07 04:21:28;;;;;;;12.88;10.48;;;15.10;91.70;;;;;;4999275;28;20185;-90
2023/08/07 04:23:54;;;;;;;11.80;10.60;;;15.00;91.70;;;;;;4999092;28;20696;-91
2023/08/07 04:26:19;;;;;;;12.85;11.40;;;15.00;91.70;;;;;;5016789;28;20176;-91
2023/08/07 04:28:45;;;;;;;12.95;11.90;;;14.90;91.80;;;;;;4999360;28;20208;-91
2023/08/07 04:31:10;;;;;;;14.95;11.73;;;14.90;91.90;;;;;;4999937;28;20380;-90
2023/08/07 04:33:36;;;;;;;12.88;11.50;;;14.90;92.10;;;;;;4999093;28;20657;-90
2023/08/07 04:36:01;;;;;;;14.95;11.50;;;15.00;92.00;;;;;;4999038;28;20177;-91
2023/08/07 04:38:27;;;;;;;12.52;11.27;;;15.00;92.00;;;;;;4999059;28;20177;-91
2023/08/07 04:40:53;;;;;;;15.18;12.07;;;15.00;91.90;;;;;;5017005;28;20192;-90
2023/08/07 04:43:22;;;;;;;13.20;12.00;;;15.10;91.90;;;;;;4998827;28;20224;-91
2023/08/07 04:45:48;;;;;;;13.52;11.68;;;15.20;91.70;;;;;;4998675;28;20252;-91
2023/08/07 04:48:14;;;;;;;12.20;11.05;;;15.20;91.60;;;;;;4999091;28;20185;-91
2023/08/07 04:50:41;;;;;;;17.85;11.20;;;15.30;91.60;;;;;;5016622;28;20177;-91
2023/08/07 04:53:07;;;;;;;15.88;11.50;;;15.30;91.40;;;;;;4998776;28;20181;-90
2023/08/07 04:55:33;;;;;;;12.13;11.07;;;15.30;91.20;;;;;;5016145;28;20264;-90
2023/08/07 04:57:58;;;;;;;12.23;11.00;;;15.40;91.10;;;;;;4998798;28;20672;-90
2023/08/07 05:00:24;;;;;;;12.82;11.55;;;15.50;90.90;;;;;;5016383;28;20185;-90
2023/08/07 05:02:50;;;;;;;12.68;11.32;;;15.60;90.50;;;;;;5016198;28;20194;-90
2023/08/07 05:05:16;;;;;;;16.15;12.23;;;15.70;90.20;;;;;;4998326;28;20196;-91
2023/08/07 05:07:41;;;;;;;14.93;11.25;;;15.70;89.90;;;;;;4998715;28;20181;-90
2023/08/07 05:10:09;;;;;;;12.63;11.50;;;15.90;89.50;;;;;;5015890;28;20173;-90
2023/08/07 05:12:35;;;;;;;12.48;11.18;;;15.90;89.50;;;;;;4998380;28;20174;-90
2023/08/07 05:15:01;;;;;;;13.45;11.30;;;15.90;89.50;;;;;;5015791;28;20189;-90
2023/08/07 05:17:26;;;;;;;14.75;11.77;;;15.90;89.60;;;;;;4998245;28;20177;-90
2023/08/07 05:19:52;;;;;;;14.50;12.25;;;15.90;89.60;;;;;;4998171;28;20192;-90
2023/08/07 05:22:18;;;;;;;15.02;11.82;;;15.90;89.30;;;;;;4998248;28;20197;-90
2023/08/07 05:24:44;;;;;;;14.98;12.25;;;16.00;89.20;;;;;;4998079;28;20639;-91
2023/08/07 05:27:11;;;;;;;17.67;12.48;;;16.00;89.00;;;;;;5015487;28;20180;-90
2023/08/07 05:29:43;;;;;;;14.70;12.93;;;16.00;88.50;;;;;;4998648;28;20173;-90
2023/08/07 05:32:10;;;;;;;16.08;12.63;;;16.10;88.40;;;;;;4998062;28;20197;-89
2023/08/07 05:34:35;;;;;;;19.35;13.23;;;16.00;87.90;;;;;;5015403;28;20197;-90
2023/08/07 05:37:01;;;;;;;23.33;13.82;;;16.10;87.80;;;;;;5015361;28;20180;-90
2023/08/07 05:39:26;;;;;;;14.77;13.20;;;16.10;87.40;;;;;;4998070;28;20196;-90
2023/08/07 05:41:53;;;;;;;15.13;13.52;;;16.10;87.10;;;;;;4997737;28;20224;-90
2023/08/07 05:44:19;;;;;;;;;;;16.10;86.80;;;;;;5015612;28;20196;-90
2023/08/07 05:46:44;;;;;;;15.20;13.70;;;16.10;86.60;;;;;;4997747;28;20677;-90
2023/08/07 05:49:10;;;;;;;20.25;13.70;;;16.20;86.20;;;;;;4997512;28;20642;-90
2023/08/07 05:51:35;;;;;;;16.80;14.25;;;16.20;86.30;;;;;;5015059;28;20711;-89
2023/08/07 05:54:01;;;;;;;19.08;14.30;;;16.20;85.90;;;;;;4997568;28;20303;-89
2023/08/07 05:56:26;;;;;;;24.85;14.05;;;16.20;85.80;;;;;;4997437;28;20235;-89
2023/08/07 05:58:52;;;;;;;17.67;14.70;;;16.20;85.80;;;;;;4997414;28;20181;-89
2023/08/07 06:01:17;;;;;;;21.75;15.00;;;16.10;85.60;;;;;;4997439;28;20653;-89
2023/08/07 06:03:43;;;;;;;22.10;15.15;;;16.20;85.40;;;;;;4997284;28;20171;-90
2023/08/07 06:06:09;;;;;;;29.45;24.48;;;16.20;84.90;;;;;;4997325;28;20668;-90
2023/08/07 06:08:34;;;;;;;30.17;25.95;;;16.20;84.60;;;;;;4997266;28;20182;-90
2023/08/07 06:11:04;;;;;;;23.02;18.15;;;16.30;84.80;;;;;;4997230;28;20240;-90
2023/08/07 06:13:30;;;;;;;26.50;15.75;;;16.30;84.30;;;;;;5015263;28;20166;-89
2023/08/07 06:15:56;;;;;;;25.27;15.75;;;16.30;84.10;;;;;;5014105;28;20765;-90
2023/08/07 06:18:21;;;;;;;26.27;23.25;;;16.30;83.70;;;;;;4996994;28;20178;-90
2023/08/07 06:20:47;;;;;;;31.63;24.90;;;16.30;83.60;;;;;;4996978;28;20680;-90
2023/08/07 06:23:13;;;;;;;27.00;15.90;;;16.40;83.80;;;;;;4997120;28;20205;-90
2023/08/07 06:25:38;;;;;;;21.73;16.08;;;16.40;83.80;;;;;;4996942;28;20197;-89
2023/08/07 06:28:04;;;;;;;25.50;16.17;;;16.40;83.20;;;;;;4997123;28;20185;-88
2023/08/07 06:30:31;;;;;;;27.30;23.75;;;16.40;83.30;;;;;;4996960;28;20181;-89
2023/08/07 06:32:56;;;;;;;29.02;25.95;;;16.40;83.10;;;;;;4996600;28;20669;-90
2023/08/07 06:35:22;;;;;;;22.33;16.67;;;16.40;83.10;;;;;;4996828;28;20212;-90
2023/08/07 06:37:48;;;;;;;19.52;17.63;;;16.30;81.70;;;;;;5014327;28;20708;-90
2023/08/07 06:40:14;;;;;;;28.15;19.05;;;16.30;80.50;;;;;;4996690;28;20185;-90
2023/08/07 06:42:39;;;;;;;29.52;26.85;;;16.40;80.10;;;;;;5014227;28;20235;-90
2023/08/07 06:45:06;;;;;;;32.10;28.95;;;16.40;80.10;;;;;;4996554;28;20332;-90
2023/08/07 06:47:32;;;;;;;26.83;17.17;;;16.40;80.30;;;;;;4996782;28;20177;-89
2023/08/07 06:49:57;;;;;;;22.38;16.13;;;16.20;81.50;;;;;;4996368;28;20192;-89
2023/08/07 06:52:23;;;;;;;26.83;17.13;;;16.00;82.00;;;;;;4996966;28;20521;-90
2023/08/07 06:54:48;;;;;;;29.98;18.27;;;16.10;81.60;;;;;;4996337;28;20205;-89
2023/08/07 06:57:14;;;;;;;23.63;17.38;;;16.10;81.20;;;;;;4996338;28;20173;-89
2023/08/07 06:59:39;;;;;;;21.77;16.92;;;16.20;81.00;;;;;;4996307;28;20712;-90
2023/08/07 07:02:05;;;;;;;20.92;17.25;;;16.30;80.50;;;;;;5014039;28;20248;-89
2023/08/07 07:04:31;;;;;;;19.48;17.50;;;16.30;80.30;;;;;;4996132;28;20266;-90
2023/08/07 07:06:57;;;;;;;32.28;18.27;;;16.40;79.10;;;;;;5013802;28;20264;-90
2023/08/07 07:09:22;;;;;;;28.98;17.30;;;16.40;78.90;;;;;;4996038;28;20181;-90
2023/08/07 07:11:48;;;;;;;23.05;18.02;;;16.30;78.80;;;;;;4996171;28;20177;-90
2023/08/07 07:14:13;;;;;;;29.85;18.45;;;16.30;79.00;;;;;;4996109;28;20693;-89
2023/08/07 07:16:39;;;;;;;20.20;18.08;;;16.30;79.50;;;;;;5013613;28;20205;-89
2023/08/07 07:19:08;;;;;;;25.60;17.95;;;16.30;79.80;;;;;;5013563;28;20654;-89
2023/08/07 07:21:33;;;;;;;20.92;18.10;;;16.40;80.30;;;;;;4996031;28;20177;-90
2023/08/07 07:23:59;;;;;;;21.83;19.65;;;16.60;78.60;;;;;;4995874;28;20695;-90
2023/08/07 07:26:24;;;;;;;38.17;19.95;;;16.70;75.80;;;;;;5012724;28;20184;-90
2023/08/07 07:28:51;;;;;;;23.23;21.02;;;16.80;76.30;;;;;;4996401;28;20181;-91
2023/08/07 07:31:16;;;;;;;25.92;20.20;;;16.80;73.60;;;;;;5013572;28;20169;-91
2023/08/07 07:33:42;;;;;;;22.05;19.73;;;17.00;74.30;;;;;;4996245;28;20529;-90
2023/08/07 07:36:13;;;;;;;22.00;19.88;;;17.00;72.90;;;;;;5013957;28;20177;-90
2023/08/07 07:38:38;;;;;;;21.35;18.95;;;17.00;73.10;;;;;;4996620;28;20603;-91
2023/08/07 07:41:04;;;;;;;26.10;19.60;;;17.00;73.50;;;;;;4996108;28;20280;-90
2023/08/07 07:43:31;;;;;;;21.13;18.45;;;17.10;73.60;;;;;;4995925;28;20221;-90
2023/08/07 07:45:57;;;;;;;34.40;18.27;;;16.90;74.60;;;;;;4995947;28;20284;-90
2023/08/07 07:48:22;;;;;;;18.63;16.73;;;16.60;78.30;;;;;;5013352;28;20592;-91
2023/08/07 07:50:48;;;;;;;22.70;15.20;;;16.10;82.40;;;;;;4995813;28;20733;-89
2023/08/07 07:53:13;;;;;;;19.25;14.80;;;15.80;84.10;;;;;;4995782;28;20668;-90
2023/08/07 07:55:39;;;;;;;25.27;22.83;;;15.70;85.20;;;;;;4996570;28;20292;-90
2023/08/07 07:58:04;;;;;;;27.60;22.25;;;15.60;85.60;;;;;;4995766;28;20260;-90
2023/08/07 08:00:30;;;;;;;35.13;24.85;;;15.60;85.30;;;;;;4996127;28;20181;-89
2023/08/07 08:02:56;;;;;;;23.23;15.13;;;15.60;84.80;;;;;;4995807;28;20734;-90
2023/08/07 08:05:21;;;;;;;27.50;15.15;;;15.70;85.30;;;;;;5014486;28;20185;-91
2023/08/07 08:07:47;;;;;;;27.38;14.98;;;15.70;85.70;;;;;;4995603;28;20675;-90
2023/08/07 08:10:13;;;;;;;27.13;16.92;;;15.70;85.60;;;;;;4995755;28;20316;-90
2023/08/07 08:12:38;;;;;;;28.85;15.32;;;15.70;84.60;;;;;;4995891;28;20177;-92
2023/08/07 08:15:04;;;;;;;20.00;15.05;;;15.80;85.30;;;;;;5013283;28;20684;-92
2023/08/07 08:17:30;;;;;;;39.47;18.80;;;15.80;84.10;;;;;;4995751;28;20185;-90
2023/08/07 08:19:56;;;;;;;28.02;15.75;;;15.90;84.00;;;;;;4995500;28;20170;-90
2023/08/07 08:22:21;;;;;;;22.88;16.10;;;16.20;83.30;;;;;;4995485;28;20209;-87
2023/08/07 08:24:50;;;;;;;36.22;16.52;;;16.50;82.70;;;;;;4995346;28;20189;-88
2023/08/07 08:27:17;;;;;;;21.80;17.67;;;16.70;81.90;;;;;;4995372;28;20209;-88
2023/08/07 08:29:42;;;;;;;26.90;18.13;;;16.50;78.50;;;;;;4995470;28;20228;-89
2023/08/07 08:32:09;;;;;;;27.92;18.83;;;16.50;78.20;;;;;;4995418;28;20185;-90
2023/08/07 08:34:34;;;;;;;24.08;18.02;;;16.50;78.00;;;;;;4995901;28;20197;-90
2023/08/07 08:37:00;;;;;;;29.60;18.75;;;16.60;77.40;;;;;;5013187;28;20667;-90
2023/08/07 08:39:25;;;;;;;27.35;18.17;;;16.70;77.30;;;;;;4998850;28;20173;-91
2023/08/07 08:41:51;;;;;;;28.73;20.50;;;16.70;77.00;;;;;;4998992;28;20169;-90
2023/08/07 08:44:20;;;;;;;25.40;18.10;;;16.70;76.50;;;;;;4998880;28;20237;-90
2023/08/07 08:46:48;;;;;;;26.38;19.10;;;16.90;76.60;;;;;;4999240;28;20174;-90
2023/08/07 08:49:18;;;;;;;20.75;18.15;;;17.00;76.40;;;;;;4998788;28;20547;-90
2023/08/07 08:51:44;;;;;;;20.98;18.85;;;17.00;74.90;;;;;;4998956;28;20177;-90
2023/08/07 08:54:10;;;;;;;27.33;19.10;;;16.90;73.90;;;;;;4999865;28;20236;-90
2023/08/07 08:56:37;;;;;;;23.05;18.35;;;16.80;72.50;;;;;;4999278;28;20243;-91
2023/08/07 08:59:03;;;;;;;24.02;19.05;;;17.00;73.00;;;;;;4999610;28;20664;-91
2023/08/07 09:01:30;;;;;;;25.08;18.50;;;17.10;70.30;;;;;;5016573;28;20176;-91
2023/08/07 09:03:56;;;;;;;23.42;18.17;;;17.20;71.70;;;;;;4998974;28;20224;-91
2023/08/07 09:06:22;;;;;;;28.58;19.67;;;17.30;70.70;;;;;;5016238;28;20249;-90
2023/08/07 09:08:49;;;;;;;23.55;21.17;;;17.40;70.50;;;;;;5016247;28;20169;-91
2023/08/07 09:11:16;;;;;;;29.50;22.13;;;17.30;67.80;;;;;;4998875;28;20263;-90
2023/08/07 09:13:44;;;;;;;26.98;21.95;;;17.20;68.40;;;;;;5016660;28;20180;-92
2023/08/07 09:16:11;;;;;;;25.40;21.48;;;17.20;67.10;;;;;;4999187;28;20582;-89
2023/08/07 09:18:37;;;;;;;30.15;27.38;;;17.30;67.00;;;;;;4998595;28;20177;-89
2023/08/07 09:21:03;;;;;;;33.78;29.60;;;17.40;66.30;;;;;;5016358;28;20648;-88
2023/08/07 09:23:29;;;;;;;29.60;26.83;;;17.60;67.10;;;;;;4998242;28;20201;-89
2023/08/07 09:26:04;;;;;;;26.50;20.73;;;17.80;65.90;;;;;;5015539;28;20194;-89
2023/08/07 09:28:32;;;;;;;22.52;20.23;;;17.80;65.50;;;;;;4998810;28;20890;-90
2023/08/07 09:30:59;;;;;;;28.42;22.58;;;17.90;64.80;;;;;;5000866;28;20184;-89
2023/08/07 09:33:30;;;;;;;24.52;22.02;;;17.80;63.90;;;;;;4998646;28;20570;-89
2023/08/07 09:36:00;;;;;;;29.10;21.25;;;17.60;65.30;;;;;;4998636;28;20260;-89
2023/08/07 09:38:34;;;;;;;21.67;19.50;;;17.60;67.80;;;;;;5015926;28;20257;-90
2023/08/07 09:41:02;;;;;;;25.63;21.13;;;17.70;65.70;;;;;;4998544;28;20165;-90
2023/08/07 09:43:29;;;;;;;26.60;20.92;;;17.80;66.00;;;;;;5015881;28;20283;-89
2023/08/07 09:46:05;;;;;;;25.08;20.83;;;18.00;65.30;;;;;;4998489;28;20188;-89
2023/08/07 09:48:33;;;;;;;23.85;21.52;;;17.80;64.70;;;;;;5015490;28;20172;-89
2023/08/07 09:51:03;;;;;;;28.70;19.85;;;18.00;64.90;;;;;;4997377;28;20173;-89
2023/08/07 09:53:30;;;;;;;22.70;20.45;;;17.80;63.80;;;;;;4998303;28;20177;-89
2023/08/07 09:55:56;;;;;;;22.67;20.58;;;17.70;64.20;;;;;;4997865;28;20204;-88
2023/08/07 09:58:22;;;;;;;22.75;20.55;;;18.00;66.80;;;;;;5015314;28;20177;-89
2023/08/07 10:00:48;;;;;;;23.52;21.17;;;18.00;65.20;;;;;;5015183;28;20672;-89
2023/08/07 10:03:14;;;;;;;29.48;21.52;;;18.00;65.80;;;;;;5015180;28;20201;-89
2023/08/07 10:05:43;;;;;;;23.42;21.02;;;17.70;67.10;;;;;;5015120;28;20201;-88
2023/08/07 10:08:10;;;;;;;23.98;21.13;;;17.50;67.90;;;;;;4997383;28;20272;-88
2023/08/07 10:10:37;;;;;;;23.00;20.73;;;17.60;68.20;;;;;;4998494;28;20173;-89
2023/08/07 10:13:03;;;;;;;23.95;21.48;;;17.30;68.10;;;;;;4997734;28;20641;-90
2023/08/07 10:15:31;;;;;;;23.95;20.58;;;17.10;68.20;;;;;;4997327;28;20256;-88
2023/08/07 10:17:57;;;;;;;23.13;20.92;;;17.00;68.80;;;;;;5015131;28;20173;-88
2023/08/07 10:20:26;;;;;;;24.50;20.42;;;17.20;68.50;;;;;;5014898;28;20209;-89
2023/08/07 10:22:52;;;;;;;27.45;24.85;;;17.60;68.80;;;;;;4997094;28;20197;-89
2023/08/07 10:25:22;;;;;;;31.23;27.95;;;17.30;67.90;;;;;;5014627;28;20300;-90
2023/08/07 10:27:51;;;;;;;29.05;26.17;;;17.60;68.10;;;;;;4998181;28;20173;-89
2023/08/07 10:30:19;;;;;;;22.27;20.17;;;17.50;68.10;;;;;;5014754;28;20176;-90
2023/08/07 10:32:46;;;;;;;22.88;20.67;;;17.90;67.40;;;;;;4996900;28;20200;-89
2023/08/07 10:35:25;;;;;;;23.05;20.58;;;17.80;67.50;;;;;;5014545;28;20231;-89
2023/08/07 10:37:53;;;;;;;23.20;20.73;;;17.60;67.50;;;;;;5014470;28;20262;-90
2023/08/07 10:40:21;;;;;;;26.15;20.92;;;17.50;68.10;;;;;;5014430;28;20181;-90
2023/08/07 10:43:00;;;;;;;23.52;21.13;;;17.40;67.50;;;;;;4996685;28;20197;-89
2023/08/07 10:45:27;;;;;;;30.95;20.40;;;17.40;67.40;;;;;;5014301;28;20248;-89
2023/08/07 10:48:07;;;;;;;23.40;21.10;;;17.50;68.80;;;;;;5014308;28;20177;-89
2023/08/07 10:50:34;;;;;;;24.02;20.23;;;17.80;68.30;;;;;;4997140;28;20688;-90
2023/08/07 10:53:01;;;;;;;22.08;20.15;;;17.80;67.10;;;;;;5014590;28;20203;-89
2023/08/07 10:55:51;;;;;;;21.10;18.55;;;17.60;68.30;;;;;;4996554;28;20201;-90
2023/08/07 10:58:34;;;;;;;22.08;14.52;;;17.20;72.90;;;;;;4996428;28;20681;-90
2023/08/07 11:01:19;;;;;;;21.95;15.32;;;16.20;78.90;;;;;;4996505;28;20199;-90
2023/08/07 11:03:45;;;;;;;16.33;14.73;;;16.00;77.90;;;;;;4997175;28;20201;-90
2023/08/07 11:06:11;;;;;;;18.88;15.52;;;16.20;77.90;;;;;;5013985;28;20180;-89
2023/08/07 11:08:37;;;;;;;19.90;16.73;;;16.50;76.80;;;;;;4996522;28;20170;-89
2023/08/07 11:11:06;;;;;;;19.67;17.50;;;17.00;74.30;;;;;;5013933;28;20656;-89
2023/08/07 11:13:33;;;;;;;22.90;17.65;;;17.20;72.00;;;;;;5014128;28;20177;-89
2023/08/07 11:16:00;;;;;;;19.63;17.65;;;17.20;71.70;;;;;;5014022;28;20194;-89
2023/08/07 11:18:26;;;;;;;20.70;18.70;;;17.60;71.10;;;;;;5013981;28;20228;-89
2023/08/07 11:20:55;;;;;;;25.10;18.35;;;17.70;70.10;;;;;;5013762;28;20176;-89
2023/08/07 11:23:27;;;;;;;24.75;18.88;;;17.80;69.50;;;;;;5014105;28;20276;-89
2023/08/07 11:25:54;;;;;;;23.15;19.48;;;18.00;70.60;;;;;;5013562;28;20185;-89
2023/08/07 11:28:20;;;;;;;22.20;19.75;;;17.70;70.10;;;;;;5013788;28;20174;-89
2023/08/07 11:30:53;;;;;;;22.13;19.80;;;17.30;67.80;;;;;;5013838;28;20173;-89
2023/08/07 11:33:25;;;;;;;28.63;26.17;;;17.20;67.80;;;;;;5014042;28;20661;-89
2023/08/07 11:35:52;;;;;;;29.10;26.23;;;17.30;67.60;;;;;;4996532;28;20315;-89
2023/08/07 11:38:33;;;;;;;25.95;23.42;;;17.60;67.00;;;;;;5013919;28;20621;-89
2023/08/07 11:41:07;;;;;;;25.33;18.92;;;17.60;66.90;;;;;;4995850;28;20235;-89
2023/08/07 11:43:34;;;;;;;19.30;17.50;;;17.50;68.10;;;;;;5013653;28;20260;-89
2023/08/07 11:46:03;;;;;;;28.23;18.80;;;17.40;69.50;;;;;;5013746;28;20244;-89
2023/08/07 11:48:30;;;;;;;20.95;15.40;;;17.30;70.90;;;;;;5013425;28;20245;-88
2023/08/07 11:50:57;;;;;;;18.95;14.65;;;16.70;76.20;;;;;;5013505;28;20176;-88
2023/08/07 11:53:25;;;;;;;17.38;14.38;;;15.80;80.40;;;;;;5013519;28;20212;-90
2023/08/07 11:55:56;;;;;;;14.45;13.10;;;15.40;79.20;;;;;;5013799;28;20205;-89
2023/08/07 11:58:24;;;;;;;18.75;13.80;;;15.30;79.10;;;;;;5013372;28;20252;-89
2023/08/07 12:00:50;;;;;;;16.40;14.38;;;15.60;78.70;;;;;;5013410;28;20712;-89
2023/08/07 12:03:30;;;;;;;17.42;14.10;;;15.80;77.30;;;;;;5013861;28;20280;-89
2023/08/07 12:05:57;;;;;;;20.48;13.93;;;16.00;77.70;;;;;;4995710;28;20243;-89
2023/08/07 12:08:22;;;;;;;17.33;13.68;;;16.20;77.30;;;;;;5013516;28;20227;-87
2023/08/07 12:10:53;;;;;;;17.35;15.43;;;16.30;77.30;;;;;;4996057;28;20177;-89
2023/08/07 12:13:27;;;;;;;17.08;15.00;;;16.50;76.50;;;;;;4998958;28;20239;-87
2023/08/07 12:15:54;;;;;;;23.55;20.92;;;16.50;76.10;;;;;;5017311;28;20673;-88
2023/08/07 12:18:20;;;;;;;26.50;21.92;;;16.50;76.00;;;;;;4999531;28;20269;-87
2023/08/07 12:20:46;;;;;;;22.48;14.32;;;16.50;78.00;;;;;;5017224;28;20196;-88
2023/08/07 12:23:18;;;;;;;23.20;14.02;;;16.00;81.20;;;;;;4999229;28;20236;-89
2023/08/07 12:25:44;;;;;;;25.00;16.27;;;15.70;83.20;;;;;;5016570;28;20189;-89